No particular awareness of the weather is required.    There are no Weather-warnings


Meteo18 Weather Cam more information Meteo18 Weather Cam


Thunder radar more information blitzortung!


Rain radar more information rain snow radar


Visit our other weather sites:

Template documentation
and downloads

And another site



Weather Underground History page Text

Daily Summary for April 11, 2017 Units:  Metric    English   Both
« Previous Day
Next Day »
Daily Weekly Monthly Yearly Custom
  High: Low: Average:
Temperature: 14.8 °C 5.1 °C 10.3 °C
Dew Point: 7.4 °C 2.6 °C 4.7 °C
Humidity: 88 % 49 % 70 %
Wind Speed: 19.3 km/h 0.0 km/h 5.5 km/h
Wind Gust: 24.1 km/h - -
Wind:- - SW
Pressure: 1027.7 hPa 1025.6 hPa -
Precipitation: 0.0 mm    
Historical Graphs
 
 
Tabular Data for April 11, 2017
Time Temperature Dew Point Pressure Wind Wind Speed Wind Gust Humidity Rainfall Rate (Hourly)
00:02 10.2 °C 7.1 °C 1025.6 hPa NW 1.6 km/h 4.8 km/h 81 % 0.0 mm
00:07 10.2 °C 7.1 °C 1025.6 hPa NW 3.2 km/h 4.8 km/h 81 % 0.0 mm
00:12 10.2 °C 7.1 °C 1025.6 hPa WNW 1.6 km/h 4.8 km/h 81 % 0.0 mm
00:17 10.1 °C 7.0 °C 1026.0 hPa Calm   4.8 km/h 81 % 0.0 mm
00:22 10.1 °C 7.0 °C 1025.6 hPa Calm   4.8 km/h 81 % 0.0 mm
00:27 10.0 °C 7.1 °C 1026.0 hPa Calm   3.2 km/h 82 % 0.0 mm
00:32 10.1 °C 7.2 °C 1026.0 hPa NW 3.2 km/h 3.2 km/h 82 % 0.0 mm
00:37 10.2 °C 7.3 °C 1026.0 hPa WNW 4.8 km/h 4.8 km/h 82 % 0.0 mm
00:42 10.2 °C 7.1 °C 1026.0 hPa Calm   4.8 km/h 81 % 0.0 mm
00:47 10.2 °C 7.1 °C 1026.0 hPa WNW 1.6 km/h 4.8 km/h 81 % 0.0 mm
00:52 10.2 °C 7.3 °C 1026.0 hPa NW 3.2 km/h 6.4 km/h 82 % 0.0 mm
00:57 10.2 °C 7.1 °C 1026.0 hPa NW 1.6 km/h 6.4 km/h 81 % 0.0 mm
01:02 10.2 °C 7.3 °C 1026.0 hPa NW 6.4 km/h 6.4 km/h 82 % 0.0 mm
01:07 10.3 °C 7.2 °C 1026.0 hPa North 1.6 km/h 6.4 km/h 81 % 0.0 mm
01:12 10.5 °C 7.2 °C 1026.0 hPa NNW 4.8 km/h 11.3 km/h 80 % 0.0 mm
01:17 10.7 °C 7.4 °C 1026.0 hPa North 6.4 km/h 11.3 km/h 80 % 0.0 mm
01:22 10.8 °C 6.7 °C 1026.0 hPa NNE 11.3 km/h 11.3 km/h 76 % 0.0 mm
01:27 10.8 °C 6.5 °C 1026.0 hPa NE 6.4 km/h 19.3 km/h 75 % 0.0 mm
01:32 10.8 °C 6.5 °C 1026.0 hPa NNE 4.8 km/h 19.3 km/h 75 % 0.0 mm
01:37 10.7 °C 6.6 °C 1026.0 hPa NNW 4.8 km/h 19.3 km/h 76 % 0.0 mm
01:42 10.7 °C 6.8 °C 1026.0 hPa Calm   14.5 km/h 77 % 0.0 mm
01:47 10.5 °C 6.4 °C 1026.0 hPa NW 8.0 km/h 14.5 km/h 76 % 0.0 mm
01:52 10.3 °C 6.1 °C 1026.0 hPa NE 3.2 km/h 17.7 km/h 75 % 0.0 mm
01:57 10.3 °C 6.1 °C 1026.0 hPa NNE 11.3 km/h 22.5 km/h 75 % 0.0 mm
02:02 10.2 °C 6.2 °C 1026.0 hPa NNE 6.4 km/h 22.5 km/h 76 % 0.0 mm
02:12 9.8 °C 6.0 °C 1026.0 hPa NNE 1.6 km/h 14.5 km/h 77 % 0.0 mm
02:17 9.7 °C 5.9 °C 1026.0 hPa NNW 3.2 km/h 11.3 km/h 77 % 0.0 mm
02:22 9.6 °C 6.0 °C 1026.0 hPa NNW 3.2 km/h 8.0 km/h 78 % 0.0 mm
02:27 9.4 °C 5.8 °C 1026.0 hPa NW 1.6 km/h 8.0 km/h 78 % 0.0 mm
02:32 9.2 °C 5.6 °C 1026.0 hPa Calm   8.0 km/h 78 % 0.0 mm
02:37 9.1 °C 5.5 °C 1026.0 hPa WNW 1.6 km/h 4.8 km/h 78 % 0.0 mm
02:42 8.9 °C 5.5 °C 1026.0 hPa Calm   6.4 km/h 79 % 0.0 mm
02:47 8.6 °C 5.2 °C 1026.0 hPa WNW 1.6 km/h 6.4 km/h 79 % 0.0 mm
02:52 8.4 °C 5.2 °C 1026.0 hPa WNW 1.6 km/h 4.8 km/h 80 % 0.0 mm
02:57 8.4 °C 5.0 °C 1026.0 hPa WNW 4.8 km/h 4.8 km/h 79 % 0.0 mm
03:02 8.4 °C 5.0 °C 1026.0 hPa NW 1.6 km/h 6.4 km/h 79 % 0.0 mm
03:07 8.4 °C 5.0 °C 1026.0 hPa Calm   6.4 km/h 79 % 0.0 mm
03:12 8.6 °C 4.8 °C 1026.0 hPa WNW 3.2 km/h 8.0 km/h 77 % 0.0 mm
03:17 8.6 °C 4.8 °C 1026.0 hPa NNW 4.8 km/h 8.0 km/h 77 % 0.0 mm
03:22 8.7 °C 4.9 °C 1026.0 hPa NW 1.6 km/h 8.0 km/h 77 % 0.0 mm
03:27 8.7 °C 4.9 °C 1026.0 hPa NNW 1.6 km/h 8.0 km/h 77 % 0.0 mm
03:32 8.6 °C 5.0 °C 1026.0 hPa NW 3.2 km/h 6.4 km/h 78 % 0.0 mm
03:37 8.6 °C 5.0 °C 1026.0 hPa NW 4.8 km/h 8.0 km/h 78 % 0.0 mm
03:42 8.6 °C 5.0 °C 1026.0 hPa NNW 4.8 km/h 8.0 km/h 78 % 0.0 mm
03:47 8.6 °C 4.8 °C 1026.0 hPa North 6.4 km/h 9.7 km/h 77 % 0.0 mm
03:52 8.6 °C 4.8 °C 1026.0 hPa North 3.2 km/h 11.3 km/h 77 % 0.0 mm
03:57 8.4 °C 4.6 °C 1026.0 hPa NNW 3.2 km/h 11.3 km/h 77 % 0.0 mm
04:02 8.4 °C 4.8 °C 1026.0 hPa NNW 3.2 km/h 11.3 km/h 78 % 0.0 mm
04:07 8.3 °C 4.7 °C 1026.0 hPa North 4.8 km/h 8.0 km/h 78 % 0.0 mm
04:12 8.2 °C 4.6 °C 1026.0 hPa Calm   8.0 km/h 78 % 0.0 mm
04:17 8.1 °C 4.5 °C 1026.0 hPa North 11.3 km/h 11.3 km/h 78 % 0.0 mm
04:22 7.9 °C 4.3 °C 1026.0 hPa North 6.4 km/h 11.3 km/h 78 % 0.0 mm
04:32 7.4 °C 4.2 °C 1026.0 hPa NNE 6.4 km/h 11.3 km/h 80 % 0.0 mm
04:37 7.3 °C 4.1 °C 1026.0 hPa North 3.2 km/h 9.7 km/h 80 % 0.0 mm
04:42 7.3 °C 4.1 °C 1026.0 hPa North 6.4 km/h 11.3 km/h 80 % 0.0 mm
04:47 7.3 °C 4.1 °C 1026.0 hPa NNW 6.4 km/h 11.3 km/h 80 % 0.0 mm
04:52 7.2 °C 4.0 °C 1026.0 hPa NNE 4.8 km/h 11.3 km/h 80 % 0.0 mm
05:02 7.1 °C 3.9 °C 1026.0 hPa NW 6.4 km/h 16.1 km/h 80 % 0.0 mm
05:12 6.8 °C 3.8 °C 1026.0 hPa North 3.2 km/h 16.1 km/h 81 % 0.0 mm
05:17 6.8 °C 3.8 °C 1026.0 hPa North 3.2 km/h 12.9 km/h 81 % 0.0 mm
05:22 6.7 °C 3.7 °C 1026.0 hPa Calm   12.9 km/h 81 % 0.0 mm
05:27 6.6 °C 3.7 °C 1026.0 hPa NNE 1.6 km/h 9.7 km/h 82 % 0.0 mm
05:32 6.4 °C 3.6 °C 1025.6 hPa North 1.6 km/h 9.7 km/h 82 % 0.0 mm
05:37 6.3 °C 3.6 °C 1025.6 hPa North 4.8 km/h 9.7 km/h 83 % 0.0 mm
05:42 6.3 °C 3.6 °C 1025.6 hPa Calm   9.7 km/h 83 % 0.0 mm
05:52 6.1 °C 3.4 °C 1025.6 hPa Calm   6.4 km/h 83 % 0.0 mm
05:57 5.9 °C 3.4 °C 1025.6 hPa Calm   3.2 km/h 84 % 0.0 mm
06:02 5.9 °C 3.4 °C 1025.6 hPa NW 3.2 km/h 3.2 km/h 84 % 0.0 mm
06:12 5.8 °C 3.3 °C 1025.6 hPa NNW 3.2 km/h 6.4 km/h 84 % 0.0 mm
06:17 5.8 °C 3.5 °C 1025.6 hPa Calm   6.4 km/h 85 % 0.0 mm
06:22 5.6 °C 3.3 °C 1025.6 hPa NNW 1.6 km/h 6.4 km/h 85 % 0.0 mm
06:32 5.4 °C 3.2 °C 1025.6 hPa NNW 1.6 km/h 6.4 km/h 86 % 0.0 mm
06:42 5.2 °C 3.1 °C 1025.6 hPa Calm   3.2 km/h 86 % 0.0 mm
06:52 5.2 °C 3.2 °C 1026.0 hPa NW 1.6 km/h 4.8 km/h 87 % 0.0 mm
06:57 5.3 °C 3.3 °C 1026.0 hPa NNW 3.2 km/h 4.8 km/h 87 % 0.0 mm
07:02 5.2 °C 3.1 °C 1026.0 hPa NNE 3.2 km/h 4.8 km/h 86 % 0.0 mm
07:12 5.1 °C 3.1 °C 1026.0 hPa NW 1.6 km/h 6.4 km/h 87 % 0.0 mm
07:17 5.1 °C 3.1 °C 1026.0 hPa NNE 1.6 km/h 6.4 km/h 87 % 0.0 mm
07:22 5.2 °C 3.2 °C 1026.0 hPa NW 3.2 km/h 6.4 km/h 87 % 0.0 mm
07:27 5.3 °C 3.3 °C 1026.0 hPa NNW 6.4 km/h 8.0 km/h 87 % 0.0 mm
07:32 5.3 °C 3.3 °C 1026.0 hPa NNW 3.2 km/h 8.0 km/h 87 % 0.0 mm
07:37 5.3 °C 3.3 °C 1026.0 hPa NNW 3.2 km/h 8.0 km/h 87 % 0.0 mm
07:42 5.3 °C 3.3 °C 1026.0 hPa NNW 3.2 km/h 8.0 km/h 87 % 0.0 mm
07:52 5.3 °C 3.3 °C 1026.0 hPa NNW 3.2 km/h 6.4 km/h 87 % 0.0 mm
07:57 5.3 °C 3.3 °C 1026.0 hPa North 4.8 km/h 6.4 km/h 87 % 0.0 mm
08:02 5.4 °C 3.6 °C 1026.0 hPa NNE 1.6 km/h 6.4 km/h 88 % 0.0 mm
08:07 5.6 °C 3.8 °C 1026.3 hPa NNW 3.2 km/h 8.0 km/h 88 % 0.0 mm
08:12 5.7 °C 3.9 °C 1026.3 hPa NW 3.2 km/h 8.0 km/h 88 % 0.0 mm
08:17 5.9 °C 3.9 °C 1026.3 hPa NNW 6.4 km/h 11.3 km/h 87 % 0.0 mm
08:22 6.1 °C 3.8 °C 1026.3 hPa NNW 9.7 km/h 11.3 km/h 85 % 0.0 mm
08:27 6.3 °C 4.0 °C 1026.3 hPa NE 4.8 km/h 11.3 km/h 85 % 0.0 mm
08:32 6.4 °C 3.9 °C 1026.3 hPa NNW 4.8 km/h 11.3 km/h 84 % 0.0 mm
08:37 6.5 °C 4.0 °C 1026.6 hPa North 9.7 km/h 12.9 km/h 84 % 0.0 mm
08:42 6.7 °C 4.2 °C 1026.6 hPa NNW 3.2 km/h 12.9 km/h 84 % 0.0 mm
08:47 6.8 °C 4.3 °C 1026.6 hPa NNE 14.5 km/h 14.5 km/h 84 % 0.0 mm
08:52 6.9 °C 4.2 °C 1027.0 hPa NE 4.8 km/h 12.9 km/h 83 % 0.0 mm
08:57 7.0 °C 4.1 °C 1027.0 hPa NNE 14.5 km/h 17.7 km/h 82 % 0.0 mm
09:02 7.1 °C 4.2 °C 1027.0 hPa NNE 9.7 km/h 17.7 km/h 82 % 0.0 mm
09:07 7.4 °C 4.5 °C 1027.0 hPa NNW 8.0 km/h 20.9 km/h 82 % 0.0 mm
09:12 7.8 °C 4.6 °C 1027.0 hPa NNE 6.4 km/h 20.9 km/h 80 % 0.0 mm
09:17 7.9 °C 4.7 °C 1027.0 hPa NNE 17.7 km/h 22.5 km/h 80 % 0.0 mm
09:22 7.8 °C 4.4 °C 1027.0 hPa NNW 14.5 km/h 22.5 km/h 79 % 0.0 mm
09:32 7.7 °C 4.5 °C 1027.0 hPa NNW 6.4 km/h 24.1 km/h 80 % 0.0 mm
09:42 7.9 °C 4.7 °C 1027.3 hPa NNW 8.0 km/h 24.1 km/h 80 % 0.0 mm
09:47 8.2 °C 4.8 °C 1027.0 hPa NW 9.7 km/h 20.9 km/h 79 % 0.0 mm
09:52 8.2 °C 4.6 °C 1027.3 hPa North 6.4 km/h 20.9 km/h 78 % 0.0 mm
09:57 8.4 °C 4.6 °C 1027.3 hPa NNW 11.3 km/h 17.7 km/h 77 % 0.0 mm
10:02 8.7 °C 4.9 °C 1027.3 hPa NNE 9.7 km/h 17.7 km/h 77 % 0.0 mm
10:07 9.0 °C 5.0 °C 1027.3 hPa NE 6.4 km/h 19.3 km/h 76 % 0.0 mm
10:12 9.2 °C 5.2 °C 1027.0 hPa NE 11.3 km/h 19.3 km/h 76 % 0.0 mm
10:17 9.3 °C 5.3 °C 1027.3 hPa North 4.8 km/h 17.7 km/h 76 % 0.0 mm
10:22 9.5 °C 5.3 °C 1027.0 hPa North 11.3 km/h 17.7 km/h 75 % 0.0 mm
10:32 9.9 °C 5.3 °C 1027.0 hPa NW 9.7 km/h 17.7 km/h 73 % 0.0 mm
10:37 10.2 °C 5.6 °C 1027.3 hPa NNW 4.8 km/h 17.7 km/h 73 % 0.0 mm
10:42 10.3 °C 5.7 °C 1027.3 hPa NW 9.7 km/h 17.7 km/h 73 % 0.0 mm
10:47 10.4 °C 5.6 °C 1027.3 hPa NW 14.5 km/h 19.3 km/h 72 % 0.0 mm
10:52 10.4 °C 5.6 °C 1027.3 hPa North 19.3 km/h 19.3 km/h 72 % 0.0 mm
11:02 10.4 °C 5.6 °C 1027.3 hPa NE 14.5 km/h 22.5 km/h 72 % 0.0 mm
11:12 10.7 °C 5.7 °C 1027.7 hPa NE 8.0 km/h 22.5 km/h 71 % 0.0 mm
11:17 10.7 °C 6.1 °C 1027.7 hPa NNE 3.2 km/h 22.5 km/h 73 % 0.0 mm
11:22 10.8 °C 5.8 °C 1027.7 hPa NNW 11.3 km/h 22.5 km/h 71 % 0.0 mm
11:32 10.9 °C 5.8 °C 1027.7 hPa NNW 12.9 km/h 20.9 km/h 71 % 0.0 mm
11:37 10.9 °C 6.1 °C 1027.7 hPa North 8.0 km/h 20.9 km/h 72 % 0.0 mm
11:42 11.1 °C 6.0 °C 1027.7 hPa NNE 11.3 km/h 20.9 km/h 71 % 0.0 mm
11:47 11.1 °C 6.2 °C 1027.7 hPa NE 9.7 km/h 20.9 km/h 72 % 0.0 mm
11:52 11.1 °C 5.8 °C 1027.7 hPa NNE 16.1 km/h 20.9 km/h 70 % 0.0 mm
11:57 11.3 °C 6.4 °C 1027.7 hPa ENE 9.7 km/h 20.9 km/h 72 % 0.0 mm
12:02 11.4 °C 6.1 °C 1027.7 hPa NNE 9.7 km/h 20.9 km/h 70 % 0.0 mm
12:07 11.4 °C 5.9 °C 1027.7 hPa NNE 9.7 km/h 20.9 km/h 69 % 0.0 mm
12:12 11.8 °C 6.5 °C 1027.7 hPa NE 9.7 km/h 19.3 km/h 70 % 0.0 mm
12:17 11.4 °C 5.3 °C 1027.7 hPa NE 8.0 km/h 22.5 km/h 66 % 0.0 mm
12:22 11.7 °C 6.2 °C 1027.7 hPa NNW 8.0 km/h 22.5 km/h 69 % 0.0 mm
12:27 12.0 °C 6.5 °C 1027.7 hPa North 1.6 km/h 24.1 km/h 69 % 0.0 mm
12:32 11.9 °C 6.2 °C 1027.7 hPa NNE 6.4 km/h 24.1 km/h 68 % 0.0 mm
12:42 12.0 °C 5.6 °C 1027.7 hPa NW 4.8 km/h 20.9 km/h 65 % 0.0 mm
12:52 12.4 °C 6.0 °C 1027.7 hPa WNW 4.8 km/h 20.9 km/h 65 % 0.0 mm
13:02 12.3 °C 5.5 °C 1027.7 hPa NW 6.4 km/h 16.1 km/h 63 % 0.0 mm
13:12 12.6 °C 5.3 °C 1027.3 hPa NW 4.8 km/h 16.1 km/h 61 % 0.0 mm
13:17 12.5 °C 4.7 °C 1027.3 hPa North 9.7 km/h 16.1 km/h 59 % 0.0 mm
13:22 12.2 °C 5.4 °C 1027.3 hPa NE 19.3 km/h 19.3 km/h 63 % 0.0 mm
13:27 12.3 °C 5.5 °C 1027.3 hPa NNE 8.0 km/h 22.5 km/h 63 % 0.0 mm
13:32 12.3 °C 5.0 °C 1027.3 hPa North 3.2 km/h 22.5 km/h 61 % 0.0 mm
13:37 12.6 °C 5.0 °C 1027.3 hPa North 4.8 km/h 22.5 km/h 60 % 0.0 mm
13:42 12.8 °C 5.0 °C 1027.3 hPa NE 4.8 km/h 19.3 km/h 59 % 0.0 mm
13:47 13.0 °C 5.2 °C 1027.3 hPa NW 4.8 km/h 19.3 km/h 59 % 0.0 mm
13:52 13.2 °C 5.4 °C 1027.3 hPa NE 4.8 km/h 19.3 km/h 59 % 0.0 mm
13:57 13.4 °C 5.1 °C 1027.3 hPa NNW 6.4 km/h 17.7 km/h 57 % 0.0 mm
14:02 13.3 °C 4.7 °C 1027.3 hPa NE 3.2 km/h 17.7 km/h 56 % 0.0 mm
14:07 13.4 °C 5.3 °C 1027.0 hPa NNE 9.7 km/h 20.9 km/h 58 % 0.0 mm
14:12 13.7 °C 5.1 °C 1027.0 hPa NW 9.7 km/h 20.9 km/h 56 % 0.0 mm
14:22 13.6 °C 5.2 °C 1027.0 hPa NNE 6.4 km/h 16.1 km/h 57 % 0.0 mm
14:27 13.6 °C 5.2 °C 1027.0 hPa NNW 6.4 km/h 22.5 km/h 57 % 0.0 mm
14:32 13.5 °C 5.1 °C 1027.0 hPa NNW 6.4 km/h 22.5 km/h 57 % 0.0 mm
14:37 13.7 °C 5.6 °C 1027.0 hPa NW 9.7 km/h 22.5 km/h 58 % 0.0 mm
14:42 13.7 °C 4.6 °C 1027.0 hPa NW 4.8 km/h 19.3 km/h 54 % 0.0 mm
14:47 13.9 °C 5.3 °C 1027.0 hPa NNE 8.0 km/h 14.5 km/h 56 % 0.0 mm
14:52 14.1 °C 5.7 °C 1027.0 hPa North 3.2 km/h 14.5 km/h 57 % 0.0 mm
14:57 14.1 °C 5.2 °C 1027.0 hPa NE 6.4 km/h 16.1 km/h 55 % 0.0 mm
15:02 13.9 °C 4.5 °C 1027.0 hPa North 9.7 km/h 16.1 km/h 53 % 0.0 mm
15:12 14.3 °C 5.6 °C 1026.6 hPa NE 4.8 km/h 17.7 km/h 56 % 0.0 mm
15:17 14.3 °C 5.4 °C 1026.6 hPa North 9.7 km/h 17.7 km/h 55 % 0.0 mm
15:22 14.3 °C 5.1 °C 1026.6 hPa NNW 9.7 km/h 17.7 km/h 54 % 0.0 mm
15:27 14.4 °C 5.5 °C 1026.6 hPa NE 16.1 km/h 16.1 km/h 55 % 0.0 mm
15:32 14.1 °C 4.9 °C 1026.6 hPa North 4.8 km/h 16.1 km/h 54 % 0.0 mm
15:37 14.3 °C 4.6 °C 1026.6 hPa West 9.7 km/h 19.3 km/h 52 % 0.0 mm
15:42 14.3 °C 5.4 °C 1026.6 hPa NNW 9.7 km/h 19.3 km/h 55 % 0.0 mm
15:47 14.3 °C 5.1 °C 1026.3 hPa NNW 11.3 km/h 16.1 km/h 54 % 0.0 mm
15:52 14.4 °C 5.2 °C 1026.3 hPa North 6.4 km/h 20.9 km/h 54 % 0.0 mm
16:02 14.4 °C 5.2 °C 1026.3 hPa North 16.1 km/h 19.3 km/h 54 % 0.0 mm
16:12 14.5 °C 5.3 °C 1026.3 hPa NNW 1.6 km/h 16.1 km/h 54 % 0.0 mm
16:17 14.5 °C 5.3 °C 1026.3 hPa NNE 3.2 km/h 16.1 km/h 54 % 0.0 mm
16:22 14.4 °C 5.2 °C 1026.3 hPa North 3.2 km/h 17.7 km/h 54 % 0.0 mm
16:32 14.2 °C 4.5 °C 1026.3 hPa NNE 1.6 km/h 17.7 km/h 52 % 0.0 mm
16:42 14.6 °C 5.4 °C 1026.3 hPa NW 9.7 km/h 17.7 km/h 54 % 0.0 mm
16:47 14.7 °C 5.2 °C 1026.0 hPa NNW 9.7 km/h 16.1 km/h 53 % 0.0 mm
16:52 14.6 °C 5.1 °C 1026.0 hPa NNW 3.2 km/h 19.3 km/h 53 % 0.0 mm
16:57 14.6 °C 4.9 °C 1026.0 hPa East 1.6 km/h 19.3 km/h 52 % 0.0 mm
17:02 14.8 °C 4.8 °C 1026.0 hPa NNW 9.7 km/h 19.3 km/h 51 % 0.0 mm
17:12 14.6 °C 4.9 °C 1026.0 hPa North 4.8 km/h 17.7 km/h 52 % 0.0 mm
17:17 14.7 °C 4.7 °C 1026.0 hPa NNW 8.0 km/h 17.7 km/h 51 % 0.0 mm
17:22 14.7 °C 4.7 °C 1026.0 hPa NNW 8.0 km/h 17.7 km/h 51 % 0.0 mm
17:27 14.7 °C 4.7 °C 1026.0 hPa NW 8.0 km/h 17.7 km/h 51 % 0.0 mm
17:32 14.7 °C 5.2 °C 1026.0 hPa ENE 3.2 km/h 17.7 km/h 53 % 0.0 mm
17:42 14.7 °C 4.9 °C 1026.0 hPa North 11.3 km/h 17.7 km/h 52 % 0.0 mm
17:47 14.7 °C 4.7 °C 1026.0 hPa North 12.9 km/h 16.1 km/h 51 % 0.0 mm
17:52 14.8 °C 5.0 °C 1026.0 hPa North 4.8 km/h 17.7 km/h 52 % 0.0 mm
17:57 14.8 °C 5.0 °C 1026.0 hPa NNW 3.2 km/h 17.7 km/h 52 % 0.0 mm
18:02 14.7 °C 4.7 °C 1026.0 hPa North 12.9 km/h 17.7 km/h 51 % 0.0 mm
18:12 14.5 °C 4.2 °C 1026.0 hPa NW 9.7 km/h 17.7 km/h 50 % 0.0 mm
18:17 14.6 °C 4.3 °C 1026.0 hPa NNW 11.3 km/h 17.7 km/h 50 % 0.0 mm
18:22 14.6 °C 4.6 °C 1026.0 hPa North 9.7 km/h 17.7 km/h 51 % 0.0 mm
18:32 14.5 °C 4.2 °C 1026.0 hPa NW 6.4 km/h 16.1 km/h 50 % 0.0 mm
18:37 14.6 °C 4.6 °C 1026.0 hPa NE 6.4 km/h 16.1 km/h 51 % 0.0 mm
18:42 14.4 °C 3.8 °C 1026.0 hPa North 6.4 km/h 17.7 km/h 49 % 0.0 mm
18:52 14.4 °C 4.1 °C 1026.0 hPa NNW 8.0 km/h 16.1 km/h 50 % 0.0 mm
18:57 14.4 °C 4.4 °C 1026.0 hPa North 4.8 km/h 17.7 km/h 51 % 0.0 mm
19:02 14.4 °C 4.4 °C 1026.0 hPa NNE 9.7 km/h 17.7 km/h 51 % 0.0 mm
19:12 14.2 °C 3.9 °C 1026.0 hPa NNW 14.5 km/h 14.5 km/h 50 % 0.0 mm
19:17 14.1 °C 4.1 °C 1026.0 hPa NNW 9.7 km/h 20.9 km/h 51 % 0.0 mm
19:22 14.0 °C 4.0 °C 1026.0 hPa North 11.3 km/h 20.9 km/h 51 % 0.0 mm
19:32 13.7 °C 4.3 °C 1025.6 hPa NNW 6.4 km/h 16.1 km/h 53 % 0.0 mm
19:37 13.7 °C 4.3 °C 1025.6 hPa NNW 4.8 km/h 16.1 km/h 53 % 0.0 mm
19:42 13.6 °C 4.5 °C 1025.6 hPa NNW 8.0 km/h 14.5 km/h 54 % 0.0 mm
19:52 13.4 °C 4.5 °C 1025.6 hPa NW 8.0 km/h 12.9 km/h 55 % 0.0 mm
19:57 13.3 °C 4.4 °C 1025.6 hPa NNW 8.0 km/h 12.9 km/h 55 % 0.0 mm
20:02 13.1 °C 4.3 °C 1025.6 hPa NNE 6.4 km/h 11.3 km/h 55 % 0.0 mm
20:07 12.8 °C 4.2 °C 1026.0 hPa NNW 3.2 km/h 14.5 km/h 56 % 0.0 mm
20:12 12.7 °C 4.1 °C 1025.6 hPa NNW 4.8 km/h 14.5 km/h 56 % 0.0 mm
20:17 12.5 °C 4.2 °C 1026.0 hPa NNW 3.2 km/h 14.5 km/h 57 % 0.0 mm
20:22 12.2 °C 4.2 °C 1026.0 hPa NNE 6.4 km/h 11.3 km/h 58 % 0.0 mm
20:27 11.9 °C 4.1 °C 1026.0 hPa NW 3.2 km/h 11.3 km/h 59 % 0.0 mm
20:32 11.7 °C 4.0 °C 1026.0 hPa NNW 3.2 km/h 11.3 km/h 59 % 0.0 mm
20:42 11.3 °C 3.8 °C 1026.0 hPa NNW 3.2 km/h 8.0 km/h 60 % 0.0 mm
20:47 11.2 °C 4.0 °C 1026.0 hPa ENE 4.8 km/h 8.0 km/h 61 % 0.0 mm
20:52 11.1 °C 3.9 °C 1026.0 hPa North 4.8 km/h 9.7 km/h 61 % 0.0 mm
20:57 10.9 °C 3.9 °C 1026.0 hPa NNE 3.2 km/h 9.7 km/h 62 % 0.0 mm
21:02 10.7 °C 3.9 °C 1026.0 hPa NNE 1.6 km/h 9.7 km/h 63 % 0.0 mm
21:07 10.5 °C 4.0 °C 1026.0 hPa North 1.6 km/h 8.0 km/h 64 % 0.0 mm
21:12 10.4 °C 3.9 °C 1026.3 hPa NNE 3.2 km/h 6.4 km/h 64 % 0.0 mm
21:22 10.1 °C 3.6 °C 1026.3 hPa Calm   6.4 km/h 64 % 0.0 mm
21:27 9.9 °C 3.6 °C 1026.0 hPa North 3.2 km/h 6.4 km/h 65 % 0.0 mm
21:32 9.8 °C 3.5 °C 1026.3 hPa North 1.6 km/h 6.4 km/h 65 % 0.0 mm
21:37 9.7 °C 3.4 °C 1026.3 hPa NW 3.2 km/h 6.4 km/h 65 % 0.0 mm
21:42 9.7 °C 3.4 °C 1026.3 hPa North 4.8 km/h 6.4 km/h 65 % 0.0 mm
21:52 9.7 °C 3.4 °C 1026.3 hPa NNE 3.2 km/h 8.0 km/h 65 % 0.0 mm
21:57 9.6 °C 3.6 °C 1026.3 hPa NNE 1.6 km/h 8.0 km/h 66 % 0.0 mm
22:02 9.6 °C 3.6 °C 1026.3 hPa NNE 1.6 km/h 8.0 km/h 66 % 0.0 mm
22:12 9.3 °C 3.5 °C 1026.3 hPa North 1.6 km/h 6.4 km/h 67 % 0.0 mm
22:22 9.1 °C 3.3 °C 1026.3 hPa NW 3.2 km/h 6.4 km/h 67 % 0.0 mm
22:27 9.1 °C 3.3 °C 1026.3 hPa NE 3.2 km/h 6.4 km/h 67 % 0.0 mm
22:32 9.1 °C 3.3 °C 1026.3 hPa NE 1.6 km/h 6.4 km/h 67 % 0.0 mm
22:37 9.1 °C 3.1 °C 1026.3 hPa NE 1.6 km/h 6.4 km/h 66 % 0.0 mm
22:42 9.0 °C 3.2 °C 1026.3 hPa North 1.6 km/h 6.4 km/h 67 % 0.0 mm
22:47 8.9 °C 3.1 °C 1026.3 hPa NNW 1.6 km/h 6.4 km/h 67 % 0.0 mm
22:52 8.8 °C 3.0 °C 1026.3 hPa North 1.6 km/h 4.8 km/h 67 % 0.0 mm
23:02 8.8 °C 2.8 °C 1026.3 hPa NNW 1.6 km/h 4.8 km/h 66 % 0.0 mm
23:07 8.8 °C 2.8 °C 1026.3 hPa NNW 1.6 km/h 4.8 km/h 66 % 0.0 mm
23:12 8.7 °C 2.9 °C 1026.3 hPa NNW 1.6 km/h 4.8 km/h 67 % 0.0 mm
23:17 8.6 °C 2.8 °C 1026.3 hPa Calm   4.8 km/h 67 % 0.0 mm
23:22 8.5 °C 2.9 °C 1026.3 hPa NNW 1.6 km/h 3.2 km/h 68 % 0.0 mm
23:32 8.2 °C 2.9 °C 1026.3 hPa NW 1.6 km/h 3.2 km/h 69 % 0.0 mm
23:37 8.1 °C 2.8 °C 1026.3 hPa NW 3.2 km/h 3.2 km/h 69 % 0.0 mm
23:42 8.2 °C 2.9 °C 1026.3 hPa NW 3.2 km/h 3.2 km/h 69 % 0.0 mm
23:52 8.2 °C 2.6 °C 1026.3 hPa NW 1.6 km/h 4.8 km/h 68 % 0.0 mm
23:57 8.2 °C 2.6 °C 1026.3 hPa NW 1.6 km/h 4.8 km/h 68 % 0.0 mm
Meteo18
Compliments of Weather Underground - 4 mb

Script developed by  Jim McMurry - jmcmurry@mwt.net Adapted for the template by  Wim van der Kuil - Leuven-Template.eu

You find our weather info also at:

European Weather Network

Weather Underground

Equipment we use:

Weather-station
Davis Vue

Weather-program
Meteohub

Weather-server
Raspberry PI 2 B+

Provider
1 and 1

Davis Vue

Meteohub

Raspberry PI 2 B+

1 and 1